sensor_id;sensor_type;location;lat;lon;timestamp;P1;durP1;ratioP1;P2;durP2;ratioP2
4616;SDS011;2321;42.704;23.384;2023-04-01T00:01:53;75.83;;;36.70;;
4616;SDS011;2321;42.704;23.384;2023-04-01T00:04:22;86.47;;;40.50;;
4616;SDS011;2321;42.704;23.384;2023-04-01T00:06:48;111.90;;;59.17;;
4616;SDS011;2321;42.704;23.384;2023-04-01T00:09:16;72.30;;;45.57;;
4616;SDS011;2321;42.704;23.384;2023-04-01T00:11:43;137.83;;;83.00;;
4616;SDS011;2321;42.704;23.384;2023-04-01T00:14:10;133.97;;;86.13;;
4616;SDS011;2321;42.704;23.384;2023-04-01T00:16:37;128.57;;;84.27;;
4616;SDS011;2321;42.704;23.384;2023-04-01T00:19:04;200.23;;;158.97;;
4616;SDS011;2321;42.704;23.384;2023-04-01T00:21:32;150.73;;;120.60;;
4616;SDS011;2321;42.704;23.384;2023-04-01T00:23:59;183.40;;;129.70;;
4616;SDS011;2321;42.704;23.384;2023-04-01T00:26:26;176.57;;;128.90;;
4616;SDS011;2321;42.704;23.384;2023-04-01T00:28:53;153.70;;;108.07;;
4616;SDS011;2321;42.704;23.384;2023-04-01T00:31:20;185.40;;;139.33;;
4616;SDS011;2321;42.704;23.384;2023-04-01T00:33:47;137.80;;;94.73;;
4616;SDS011;2321;42.704;23.384;2023-04-01T00:36:15;134.43;;;94.37;;
4616;SDS011;2321;42.704;23.384;2023-04-01T00:38:44;176.07;;;111.53;;
4616;SDS011;2321;42.704;23.384;2023-04-01T00:41:12;194.67;;;131.33;;
4616;SDS011;2321;42.704;23.384;2023-04-01T00:43:40;229.37;;;172.57;;
4616;SDS011;2321;42.704;23.384;2023-04-01T00:46:08;186.30;;;131.90;;
4616;SDS011;2321;42.704;23.384;2023-04-01T00:48:35;283.67;;;181.73;;
4616;SDS011;2321;42.704;23.384;2023-04-01T00:51:06;563.23;;;291.17;;
4616;SDS011;2321;42.704;23.384;2023-04-01T00:53:38;186.90;;;133.17;;
4616;SDS011;2321;42.704;23.384;2023-04-01T00:56:12;160.83;;;117.43;;
4616;SDS011;2321;42.704;23.384;2023-04-01T00:58:43;488.70;;;253.90;;
4616;SDS011;2321;42.704;23.384;2023-04-01T01:01:14;591.90;;;282.53;;
4616;SDS011;2321;42.704;23.384;2023-04-01T01:03:42;686.07;;;339.17;;
4616;SDS011;2321;42.704;23.384;2023-04-01T01:06:10;447.27;;;250.63;;
4616;SDS011;2321;42.704;23.384;2023-04-01T01:08:58;346.17;;;226.03;;
4616;SDS011;2321;42.704;23.384;2023-04-01T01:11:36;342.77;;;197.27;;
4616;SDS011;2321;42.704;23.384;2023-04-01T01:14:08;367.07;;;237.13;;
4616;SDS011;2321;42.704;23.384;2023-04-01T01:16:47;244.03;;;159.03;;
4616;SDS011;2321;42.704;23.384;2023-04-01T01:19:26;160.97;;;107.83;;
4616;SDS011;2321;42.704;23.384;2023-04-01T01:22:24;107.50;;;56.10;;
4616;SDS011;2321;42.704;23.384;2023-04-01T01:25:09;65.93;;;27.90;;
4616;SDS011;2321;42.704;23.384;2023-04-01T01:27:45;67.77;;;21.83;;
4616;SDS011;2321;42.704;23.384;2023-04-01T01:30:32;92.73;;;28.73;;
4616;SDS011;2321;42.704;23.384;2023-04-01T01:33:13;72.97;;;26.07;;
4616;SDS011;2321;42.704;23.384;2023-04-01T01:35:53;97.07;;;28.90;;
4616;SDS011;2321;42.704;23.384;2023-04-01T01:38:23;96.70;;;59.33;;
4616;SDS011;2321;42.704;23.384;2023-04-01T01:40:53;135.47;;;92.50;;
4616;SDS011;2321;42.704;23.384;2023-04-01T01:43:24;120.07;;;82.97;;
4616;SDS011;2321;42.704;23.384;2023-04-01T01:45:52;166.17;;;113.07;;
4616;SDS011;2321;42.704;23.384;2023-04-01T01:48:22;154.47;;;108.30;;
4616;SDS011;2321;42.704;23.384;2023-04-01T01:50:50;134.30;;;91.80;;
4616;SDS011;2321;42.704;23.384;2023-04-01T01:53:20;230.90;;;152.73;;
4616;SDS011;2321;42.704;23.384;2023-04-01T01:55:46;311.07;;;185.53;;
4616;SDS011;2321;42.704;23.384;2023-04-01T01:58:16;519.70;;;274.00;;
4616;SDS011;2321;42.704;23.384;2023-04-01T02:00:46;246.27;;;153.97;;
4616;SDS011;2321;42.704;23.384;2023-04-01T02:03:17;252.70;;;168.43;;
4616;SDS011;2321;42.704;23.384;2023-04-01T02:05:46;259.17;;;187.77;;
4616;SDS011;2321;42.704;23.384;2023-04-01T02:08:15;75.07;;;24.87;;
4616;SDS011;2321;42.704;23.384;2023-04-01T02:10:47;100.13;;;35.50;;
4616;SDS011;2321;42.704;23.384;2023-04-01T02:13:22;92.53;;;35.90;;
4616;SDS011;2321;42.704;23.384;2023-04-01T02:15:52;112.00;;;29.73;;
4616;SDS011;2321;42.704;23.384;2023-04-01T02:18:25;81.57;;;15.37;;
4616;SDS011;2321;42.704;23.384;2023-04-01T02:20:53;80.30;;;15.80;;
4616;SDS011;2321;42.704;23.384;2023-04-01T02:23:22;65.13;;;13.83;;
4616;SDS011;2321;42.704;23.384;2023-04-01T02:25:49;114.67;;;25.17;;
4616;SDS011;2321;42.704;23.384;2023-04-01T02:28:17;82.27;;;21.23;;
4616;SDS011;2321;42.704;23.384;2023-04-01T02:30:45;76.20;;;20.50;;
4616;SDS011;2321;42.704;23.384;2023-04-01T02:33:16;81.97;;;33.83;;
4616;SDS011;2321;42.704;23.384;2023-04-01T02:35:44;324.87;;;188.83;;
4616;SDS011;2321;42.704;23.384;2023-04-01T02:38:11;500.33;;;236.03;;
4616;SDS011;2321;42.704;23.384;2023-04-01T02:40:43;189.87;;;109.67;;
4616;SDS011;2321;42.704;23.384;2023-04-01T02:43:12;90.20;;;58.43;;
4616;SDS011;2321;42.704;23.384;2023-04-01T02:45:39;119.97;;;78.50;;
4616;SDS011;2321;42.704;23.384;2023-04-01T02:48:06;95.10;;;59.87;;
4616;SDS011;2321;42.704;23.384;2023-04-01T02:50:33;78.73;;;24.30;;
4616;SDS011;2321;42.704;23.384;2023-04-01T02:53:00;89.13;;;23.50;;
4616;SDS011;2321;42.704;23.384;2023-04-01T02:55:28;96.13;;;25.80;;
4616;SDS011;2321;42.704;23.384;2023-04-01T02:57:57;60.60;;;23.00;;
4616;SDS011;2321;42.704;23.384;2023-04-01T03:00:24;87.23;;;34.37;;
4616;SDS011;2321;42.704;23.384;2023-04-01T03:02:51;77.13;;;28.90;;
4616;SDS011;2321;42.704;23.384;2023-04-01T03:05:18;74.37;;;42.67;;
4616;SDS011;2321;42.704;23.384;2023-04-01T03:07:45;124.10;;;44.40;;
4616;SDS011;2321;42.704;23.384;2023-04-01T03:10:12;125.00;;;72.53;;
4616;SDS011;2321;42.704;23.384;2023-04-01T03:12:38;100.00;;;66.27;;
4616;SDS011;2321;42.704;23.384;2023-04-01T03:15:08;144.40;;;68.30;;
4616;SDS011;2321;42.704;23.384;2023-04-01T03:17:36;149.90;;;74.10;;
4616;SDS011;2321;42.704;23.384;2023-04-01T03:20:03;259.43;;;131.33;;
4616;SDS011;2321;42.704;23.384;2023-04-01T03:22:31;183.13;;;105.37;;
4616;SDS011;2321;42.704;23.384;2023-04-01T03:24:58;257.07;;;133.37;;
4616;SDS011;2321;42.704;23.384;2023-04-01T03:27:24;253.43;;;117.53;;
4616;SDS011;2321;42.704;23.384;2023-04-01T03:29:51;268.67;;;128.70;;
4616;SDS011;2321;42.704;23.384;2023-04-01T03:32:19;417.17;;;181.27;;
4616;SDS011;2321;42.704;23.384;2023-04-01T03:34:46;113.07;;;69.67;;
4616;SDS011;2321;42.704;23.384;2023-04-01T03:37:13;106.63;;;46.40;;
4616;SDS011;2321;42.704;23.384;2023-04-01T03:39:40;97.97;;;59.53;;
4616;SDS011;2321;42.704;23.384;2023-04-01T03:42:06;113.03;;;58.53;;
4616;SDS011;2321;42.704;23.384;2023-04-01T03:44:33;96.13;;;39.53;;
4616;SDS011;2321;42.704;23.384;2023-04-01T03:47:00;71.67;;;31.93;;
4616;SDS011;2321;42.704;23.384;2023-04-01T03:49:29;91.43;;;34.80;;
4616;SDS011;2321;42.704;23.384;2023-04-01T03:51:57;74.77;;;21.77;;
4616;SDS011;2321;42.704;23.384;2023-04-01T03:54:24;69.60;;;19.23;;
4616;SDS011;2321;42.704;23.384;2023-04-01T03:56:51;70.57;;;24.10;;
4616;SDS011;2321;42.704;23.384;2023-04-01T03:59:17;95.03;;;34.37;;
4616;SDS011;2321;42.704;23.384;2023-04-01T04:01:46;96.87;;;40.23;;
4616;SDS011;2321;42.704;23.384;2023-04-01T04:04:12;78.03;;;30.77;;
4616;SDS011;2321;42.704;23.384;2023-04-01T04:06:41;71.97;;;29.80;;
4616;SDS011;2321;42.704;23.384;2023-04-01T04:09:07;68.30;;;22.30;;
4616;SDS011;2321;42.704;23.384;2023-04-01T04:11:34;68.50;;;22.80;;
4616;SDS011;2321;42.704;23.384;2023-04-01T04:14:01;102.53;;;29.03;;
4616;SDS011;2321;42.704;23.384;2023-04-01T04:16:28;92.00;;;30.97;;
4616;SDS011;2321;42.704;23.384;2023-04-01T04:18:55;94.17;;;48.87;;
4616;SDS011;2321;42.704;23.384;2023-04-01T04:21:21;61.97;;;20.70;;
4616;SDS011;2321;42.704;23.384;2023-04-01T04:23:50;107.03;;;56.90;;
4616;SDS011;2321;42.704;23.384;2023-04-01T04:26:17;113.07;;;62.67;;
4616;SDS011;2321;42.704;23.384;2023-04-01T04:28:43;89.67;;;47.00;;
4616;SDS011;2321;42.704;23.384;2023-04-01T04:31:10;102.50;;;64.13;;
4616;SDS011;2321;42.704;23.384;2023-04-01T04:33:37;122.83;;;66.47;;
4616;SDS011;2321;42.704;23.384;2023-04-01T04:36:04;116.77;;;73.13;;
4616;SDS011;2321;42.704;23.384;2023-04-01T04:38:32;105.40;;;68.17;;
4616;SDS011;2321;42.704;23.384;2023-04-01T04:41:00;97.07;;;60.03;;
4616;SDS011;2321;42.704;23.384;2023-04-01T04:43:27;122.90;;;82.43;;
4616;SDS011;2321;42.704;23.384;2023-04-01T04:45:53;156.57;;;101.60;;
4616;SDS011;2321;42.704;23.384;2023-04-01T04:48:20;122.97;;;76.00;;
4616;SDS011;2321;42.704;23.384;2023-04-01T04:50:47;174.83;;;117.77;;
4616;SDS011;2321;42.704;23.384;2023-04-01T04:53:15;180.20;;;115.23;;
4616;SDS011;2321;42.704;23.384;2023-04-01T04:55:43;189.63;;;147.70;;
4616;SDS011;2321;42.704;23.384;2023-04-01T04:58:12;169.50;;;126.53;;
4616;SDS011;2321;42.704;23.384;2023-04-01T05:00:39;212.97;;;132.20;;
4616;SDS011;2321;42.704;23.384;2023-04-01T05:03:06;272.43;;;185.70;;
4616;SDS011;2321;42.704;23.384;2023-04-01T05:05:32;337.87;;;205.23;;
4616;SDS011;2321;42.704;23.384;2023-04-01T05:07:59;375.73;;;196.17;;
4616;SDS011;2321;42.704;23.384;2023-04-01T05:10:26;474.07;;;249.63;;
4616;SDS011;2321;42.704;23.384;2023-04-01T05:12:53;383.73;;;203.83;;
4616;SDS011;2321;42.704;23.384;2023-04-01T05:15:21;512.77;;;232.47;;
4616;SDS011;2321;42.704;23.384;2023-04-01T05:17:48;141.87;;;92.03;;
4616;SDS011;2321;42.704;23.384;2023-04-01T05:20:16;237.33;;;153.13;;
4616;SDS011;2321;42.704;23.384;2023-04-01T05:22:43;224.43;;;156.37;;
4616;SDS011;2321;42.704;23.384;2023-04-01T05:25:09;315.27;;;190.43;;
4616;SDS011;2321;42.704;23.384;2023-04-01T05:27:36;154.20;;;73.33;;
4616;SDS011;2321;42.704;23.384;2023-04-01T05:30:03;86.90;;;28.67;;
4616;SDS011;2321;42.704;23.384;2023-04-01T05:32:32;98.43;;;33.37;;
4616;SDS011;2321;42.704;23.384;2023-04-01T05:34:59;114.17;;;78.60;;
4616;SDS011;2321;42.704;23.384;2023-04-01T05:37:26;103.77;;;57.50;;
4616;SDS011;2321;42.704;23.384;2023-04-01T05:39:53;88.17;;;41.30;;
4616;SDS011;2321;42.704;23.384;2023-04-01T05:42:19;98.83;;;53.00;;
4616;SDS011;2321;42.704;23.384;2023-04-01T05:44:46;489.73;;;283.47;;
4616;SDS011;2321;42.704;23.384;2023-04-01T05:47:13;93.40;;;39.90;;
4616;SDS011;2321;42.704;23.384;2023-04-01T05:49:41;95.03;;;25.10;;
4616;SDS011;2321;42.704;23.384;2023-04-01T05:52:08;75.43;;;24.90;;
4616;SDS011;2321;42.704;23.384;2023-04-01T05:54:35;78.33;;;23.03;;
4616;SDS011;2321;42.704;23.384;2023-04-01T05:57:02;75.67;;;17.47;;
4616;SDS011;2321;42.704;23.384;2023-04-01T05:59:29;62.93;;;18.63;;
4616;SDS011;2321;42.704;23.384;2023-04-01T06:01:56;63.40;;;16.00;;
4616;SDS011;2321;42.704;23.384;2023-04-01T06:04:23;49.13;;;11.47;;
4616;SDS011;2321;42.704;23.384;2023-04-01T06:06:52;89.77;;;18.70;;
4616;SDS011;2321;42.704;23.384;2023-04-01T06:09:19;72.40;;;17.87;;
4616;SDS011;2321;42.704;23.384;2023-04-01T06:11:57;61.63;;;17.20;;
4616;SDS011;2321;42.704;23.384;2023-04-01T06:14:37;70.93;;;20.20;;
4616;SDS011;2321;42.704;23.384;2023-04-01T06:17:12;68.13;;;16.17;;
4616;SDS011;2321;42.704;23.384;2023-04-01T06:19:51;92.87;;;23.40;;
4616;SDS011;2321;42.704;23.384;2023-04-01T06:25:24;93.47;;;33.10;;
4616;SDS011;2321;42.704;23.384;2023-04-01T06:31:10;96.37;;;59.23;;
4616;SDS011;2321;42.704;23.384;2023-04-01T06:33:41;91.03;;;42.63;;
4616;SDS011;2321;42.704;23.384;2023-04-01T06:36:25;87.57;;;56.07;;
4616;SDS011;2321;42.704;23.384;2023-04-01T06:39:13;108.20;;;42.53;;
4616;SDS011;2321;42.704;23.384;2023-04-01T06:45:06;116.53;;;96.40;;
4616;SDS011;2321;42.704;23.384;2023-04-01T06:47:44;123.23;;;69.83;;
4616;SDS011;2321;42.704;23.384;2023-04-01T06:50:24;90.80;;;40.53;;
4616;SDS011;2321;42.704;23.384;2023-04-01T06:52:58;92.23;;;47.60;;
4616;SDS011;2321;42.704;23.384;2023-04-01T06:55:34;63.27;;;21.57;;
4616;SDS011;2321;42.704;23.384;2023-04-01T06:58:09;77.43;;;45.77;;
4616;SDS011;2321;42.704;23.384;2023-04-01T07:00:37;63.73;;;32.03;;
4616;SDS011;2321;42.704;23.384;2023-04-01T07:03:11;65.50;;;20.13;;
4616;SDS011;2321;42.704;23.384;2023-04-01T07:05:48;119.30;;;64.90;;
4616;SDS011;2321;42.704;23.384;2023-04-01T07:08:17;102.90;;;45.70;;
4616;SDS011;2321;42.704;23.384;2023-04-01T07:10:50;202.17;;;181.47;;
4616;SDS011;2321;42.704;23.384;2023-04-01T07:13:20;214.67;;;191.43;;
4616;SDS011;2321;42.704;23.384;2023-04-01T07:15:56;194.40;;;173.23;;
4616;SDS011;2321;42.704;23.384;2023-04-01T07:18:30;182.07;;;162.40;;
4616;SDS011;2321;42.704;23.384;2023-04-01T07:21:03;181.10;;;154.47;;
4616;SDS011;2321;42.704;23.384;2023-04-01T07:23:36;212.57;;;177.80;;
4616;SDS011;2321;42.704;23.384;2023-04-01T07:26:11;255.77;;;197.83;;
4616;SDS011;2321;42.704;23.384;2023-04-01T07:28:42;338.60;;;304.53;;
4616;SDS011;2321;42.704;23.384;2023-04-01T07:31:12;481.33;;;415.50;;
4616;SDS011;2321;42.704;23.384;2023-04-01T07:33:49;561.33;;;438.90;;
4616;SDS011;2321;42.704;23.384;2023-04-01T07:36:26;278.53;;;244.00;;
4616;SDS011;2321;42.704;23.384;2023-04-01T07:39:03;179.80;;;137.07;;
4616;SDS011;2321;42.704;23.384;2023-04-01T07:41:40;96.57;;;56.83;;
4616;SDS011;2321;42.704;23.384;2023-04-01T07:44:11;104.07;;;52.97;;
4616;SDS011;2321;42.704;23.384;2023-04-01T07:46:53;87.63;;;55.77;;
4616;SDS011;2321;42.704;23.384;2023-04-01T07:49:30;96.33;;;82.00;;
4616;SDS011;2321;42.704;23.384;2023-04-01T07:52:07;125.70;;;106.13;;
4616;SDS011;2321;42.704;23.384;2023-04-01T07:54:42;72.27;;;52.40;;
4616;SDS011;2321;42.704;23.384;2023-04-01T07:57:18;118.90;;;51.33;;
4616;SDS011;2321;42.704;23.384;2023-04-01T07:59:50;79.40;;;43.30;;
4616;SDS011;2321;42.704;23.384;2023-04-01T08:02:30;104.70;;;71.53;;
4616;SDS011;2321;42.704;23.384;2023-04-01T08:05:12;115.03;;;77.83;;
4616;SDS011;2321;42.704;23.384;2023-04-01T08:07:47;127.23;;;67.00;;
4616;SDS011;2321;42.704;23.384;2023-04-01T08:10:26;96.20;;;64.60;;
4616;SDS011;2321;42.704;23.384;2023-04-01T08:13:05;84.13;;;42.67;;
4616;SDS011;2321;42.704;23.384;2023-04-01T08:15:43;91.87;;;56.63;;
4616;SDS011;2321;42.704;23.384;2023-04-01T08:18:17;86.23;;;46.83;;
4616;SDS011;2321;42.704;23.384;2023-04-01T08:20:56;56.43;;;33.87;;
4616;SDS011;2321;42.704;23.384;2023-04-01T08:23:36;81.37;;;36.87;;
4616;SDS011;2321;42.704;23.384;2023-04-01T08:26:10;77.27;;;35.87;;
4616;SDS011;2321;42.704;23.384;2023-04-01T08:28:45;85.40;;;34.47;;
4616;SDS011;2321;42.704;23.384;2023-04-01T08:31:18;77.77;;;31.47;;
4616;SDS011;2321;42.704;23.384;2023-04-01T08:33:50;63.20;;;29.07;;
4616;SDS011;2321;42.704;23.384;2023-04-01T08:36:20;56.63;;;25.87;;
4616;SDS011;2321;42.704;23.384;2023-04-01T08:38:52;78.93;;;51.07;;
4616;SDS011;2321;42.704;23.384;2023-04-01T08:41:27;77.80;;;35.10;;
4616;SDS011;2321;42.704;23.384;2023-04-01T08:44:32;65.97;;;30.17;;
4616;SDS011;2321;42.704;23.384;2023-04-01T08:47:13;84.67;;;38.37;;
4616;SDS011;2321;42.704;23.384;2023-04-01T08:50:01;72.77;;;32.97;;
4616;SDS011;2321;42.704;23.384;2023-04-01T08:52:48;61.90;;;30.27;;
4616;SDS011;2321;42.704;23.384;2023-04-01T08:55:30;65.53;;;12.23;;
4616;SDS011;2321;42.704;23.384;2023-04-01T09:01:01;74.87;;;17.37;;
4616;SDS011;2321;42.704;23.384;2023-04-01T09:03:44;66.63;;;21.93;;
4616;SDS011;2321;42.704;23.384;2023-04-01T09:06:35;71.70;;;11.13;;
4616;SDS011;2321;42.704;23.384;2023-04-01T09:09:21;56.77;;;10.27;;
4616;SDS011;2321;42.704;23.384;2023-04-01T09:15:16;42.67;;;7.37;;
4616;SDS011;2321;42.704;23.384;2023-04-01T09:21:08;59.17;;;11.23;;
4616;SDS011;2321;42.704;23.384;2023-04-01T09:23:55;39.67;;;8.53;;
4616;SDS011;2321;42.704;23.384;2023-04-01T09:26:58;47.37;;;15.13;;
4616;SDS011;2321;42.704;23.384;2023-04-01T09:29:35;69.40;;;15.93;;
4616;SDS011;2321;42.704;23.384;2023-04-01T09:32:38;49.27;;;15.27;;
4616;SDS011;2321;42.704;23.384;2023-04-01T09:35:22;62.83;;;20.23;;
4616;SDS011;2321;42.704;23.384;2023-04-01T09:38:09;55.47;;;14.00;;
4616;SDS011;2321;42.704;23.384;2023-04-01T09:40:48;69.17;;;13.73;;
4616;SDS011;2321;42.704;23.384;2023-04-01T09:43:26;55.17;;;11.17;;
4616;SDS011;2321;42.704;23.384;2023-04-01T09:46:00;41.30;;;7.43;;
4616;SDS011;2321;42.704;23.384;2023-04-01T09:51:42;47.47;;;9.63;;
4616;SDS011;2321;42.704;23.384;2023-04-01T09:54:25;42.07;;;8.73;;
4616;SDS011;2321;42.704;23.384;2023-04-01T10:00:20;52.63;;;10.10;;
4616;SDS011;2321;42.704;23.384;2023-04-01T10:06:23;71.93;;;11.10;;
4616;SDS011;2321;42.704;23.384;2023-04-01T10:09:17;67.17;;;11.77;;
4616;SDS011;2321;42.704;23.384;2023-04-01T10:18:36;58.50;;;10.53;;
4616;SDS011;2321;42.704;23.384;2023-04-01T10:21:44;60.67;;;8.73;;
4616;SDS011;2321;42.704;23.384;2023-04-01T10:27:50;78.80;;;12.70;;
4616;SDS011;2321;42.704;23.384;2023-04-01T10:33:25;58.40;;;11.27;;
4616;SDS011;2321;42.704;23.384;2023-04-01T10:39:33;53.73;;;8.40;;
4616;SDS011;2321;42.704;23.384;2023-04-01T10:51:38;70.63;;;11.23;;
4616;SDS011;2321;42.704;23.384;2023-04-01T10:54:42;69.80;;;11.63;;
4616;SDS011;2321;42.704;23.384;2023-04-01T11:09:29;47.27;;;8.53;;
4616;SDS011;2321;42.704;23.384;2023-04-01T11:12:24;47.30;;;9.00;;
4616;SDS011;2321;42.704;23.384;2023-04-01T11:18:29;58.10;;;9.00;;
4616;SDS011;2321;42.704;23.384;2023-04-01T11:21:28;72.97;;;10.83;;
4616;SDS011;2321;42.704;23.384;2023-04-01T11:24:31;41.87;;;7.53;;
4616;SDS011;2321;42.704;23.384;2023-04-01T11:27:22;56.40;;;11.37;;
4616;SDS011;2321;42.704;23.384;2023-04-01T11:30:12;69.03;;;11.37;;
4616;SDS011;2321;42.704;23.384;2023-04-01T11:33:07;52.53;;;8.90;;
4616;SDS011;2321;42.704;23.384;2023-04-01T11:35:49;50.63;;;9.30;;
4616;SDS011;2321;42.704;23.384;2023-04-01T11:38:35;76.77;;;14.23;;
4616;SDS011;2321;42.704;23.384;2023-04-01T11:41:22;79.43;;;45.70;;
4616;SDS011;2321;42.704;23.384;2023-04-01T11:44:02;87.00;;;36.73;;
4616;SDS011;2321;42.704;23.384;2023-04-01T11:46:39;101.30;;;74.23;;
4616;SDS011;2321;42.704;23.384;2023-04-01T11:49:19;54.87;;;37.57;;
4616;SDS011;2321;42.704;23.384;2023-04-01T11:52:01;113.73;;;102.30;;
4616;SDS011;2321;42.704;23.384;2023-04-01T11:54:46;199.90;;;182.20;;
4616;SDS011;2321;42.704;23.384;2023-04-01T12:00:28;359.47;;;301.03;;
4616;SDS011;2321;42.704;23.384;2023-04-01T12:03:22;75.67;;;14.03;;
4616;SDS011;2321;42.704;23.384;2023-04-01T12:06:29;540.17;;;339.37;;
4616;SDS011;2321;42.704;23.384;2023-04-01T12:09:02;74.50;;;64.17;;
4616;SDS011;2321;42.704;23.384;2023-04-01T12:11:38;138.47;;;114.50;;
4616;SDS011;2321;42.704;23.384;2023-04-01T12:14:16;155.97;;;121.33;;
4616;SDS011;2321;42.704;23.384;2023-04-01T12:16:52;73.90;;;62.80;;
4616;SDS011;2321;42.704;23.384;2023-04-01T12:19:30;77.43;;;47.33;;
4616;SDS011;2321;42.704;23.384;2023-04-01T12:25:03;98.90;;;83.00;;
4616;SDS011;2321;42.704;23.384;2023-04-01T12:27:45;102.50;;;66.17;;
4616;SDS011;2321;42.704;23.384;2023-04-01T12:30:32;115.43;;;65.83;;
4616;SDS011;2321;42.704;23.384;2023-04-01T12:33:07;93.47;;;71.30;;
4616;SDS011;2321;42.704;23.384;2023-04-01T12:35:50;82.17;;;64.63;;
4616;SDS011;2321;42.704;23.384;2023-04-01T12:38:28;115.43;;;89.83;;
4616;SDS011;2321;42.704;23.384;2023-04-01T12:41:13;83.20;;;42.47;;
4616;SDS011;2321;42.704;23.384;2023-04-01T12:43:58;60.47;;;39.40;;
4616;SDS011;2321;42.704;23.384;2023-04-01T12:46:49;82.33;;;39.70;;
4616;SDS011;2321;42.704;23.384;2023-04-01T12:52:23;93.53;;;37.77;;
4616;SDS011;2321;42.704;23.384;2023-04-01T12:55:15;87.47;;;30.83;;
4616;SDS011;2321;42.704;23.384;2023-04-01T12:58:08;99.00;;;26.93;;
4616;SDS011;2321;42.704;23.384;2023-04-01T13:01:06;45.17;;;10.57;;
4616;SDS011;2321;42.704;23.384;2023-04-01T13:07:09;52.20;;;11.23;;
4616;SDS011;2321;42.704;23.384;2023-04-01T13:09:57;73.73;;;17.73;;
4616;SDS011;2321;42.704;23.384;2023-04-01T13:12:40;123.73;;;25.07;;
4616;SDS011;2321;42.704;23.384;2023-04-01T13:15:23;62.77;;;17.17;;
4616;SDS011;2321;42.704;23.384;2023-04-01T13:17:57;73.23;;;24.13;;
4616;SDS011;2321;42.704;23.384;2023-04-01T13:20:33;83.30;;;36.57;;
4616;SDS011;2321;42.704;23.384;2023-04-01T13:23:11;97.57;;;67.57;;
4616;SDS011;2321;42.704;23.384;2023-04-01T13:25:47;152.37;;;137.17;;
4616;SDS011;2321;42.704;23.384;2023-04-01T13:28:21;131.27;;;119.07;;
4616;SDS011;2321;42.704;23.384;2023-04-01T13:30:54;159.77;;;142.97;;
4616;SDS011;2321;42.704;23.384;2023-04-01T13:33:30;106.07;;;95.53;;
4616;SDS011;2321;42.704;23.384;2023-04-01T13:36:10;129.93;;;103.40;;
4616;SDS011;2321;42.704;23.384;2023-04-01T13:39:02;181.60;;;122.37;;
4616;SDS011;2321;42.704;23.384;2023-04-01T13:41:55;119.23;;;67.77;;
4616;SDS011;2321;42.704;23.384;2023-04-01T13:44:38;135.13;;;105.37;;
4616;SDS011;2321;42.704;23.384;2023-04-01T13:47:18;130.07;;;110.13;;
4616;SDS011;2321;42.704;23.384;2023-04-01T13:50:02;122.63;;;103.37;;
4616;SDS011;2321;42.704;23.384;2023-04-01T13:53:05;103.57;;;88.43;;
4616;SDS011;2321;42.704;23.384;2023-04-01T13:55:48;116.80;;;94.13;;
4616;SDS011;2321;42.704;23.384;2023-04-01T13:58:24;106.77;;;70.00;;
4616;SDS011;2321;42.704;23.384;2023-04-01T14:01:13;107.67;;;75.07;;
4616;SDS011;2321;42.704;23.384;2023-04-01T14:04:01;89.93;;;46.93;;
4616;SDS011;2321;42.704;23.384;2023-04-01T14:06:46;105.63;;;65.97;;
4616;SDS011;2321;42.704;23.384;2023-04-01T14:12:31;67.53;;;60.97;;
4616;SDS011;2321;42.704;23.384;2023-04-01T14:15:09;125.17;;;69.20;;
4616;SDS011;2321;42.704;23.384;2023-04-01T14:17:53;85.67;;;55.83;;
4616;SDS011;2321;42.704;23.384;2023-04-01T14:20:34;118.53;;;66.40;;
4616;SDS011;2321;42.704;23.384;2023-04-01T14:23:18;76.20;;;52.83;;
4616;SDS011;2321;42.704;23.384;2023-04-01T14:26:13;107.20;;;68.23;;
4616;SDS011;2321;42.704;23.384;2023-04-01T14:28:50;156.97;;;132.13;;
4616;SDS011;2321;42.704;23.384;2023-04-01T14:31:30;106.13;;;89.23;;
4616;SDS011;2321;42.704;23.384;2023-04-01T14:34:09;196.57;;;171.77;;
4616;SDS011;2321;42.704;23.384;2023-04-01T14:36:50;120.07;;;108.80;;
4616;SDS011;2321;42.704;23.384;2023-04-01T14:39:29;125.97;;;112.57;;
4616;SDS011;2321;42.704;23.384;2023-04-01T14:42:17;164.30;;;146.93;;
4616;SDS011;2321;42.704;23.384;2023-04-01T14:47:51;306.13;;;276.53;;
4616;SDS011;2321;42.704;23.384;2023-04-01T14:50:23;125.17;;;106.87;;
4616;SDS011;2321;42.704;23.384;2023-04-01T14:52:57;85.00;;;68.10;;
4616;SDS011;2321;42.704;23.384;2023-04-01T14:55:31;117.07;;;100.03;;
4616;SDS011;2321;42.704;23.384;2023-04-01T14:58:07;574.30;;;499.40;;
4616;SDS011;2321;42.704;23.384;2023-04-01T15:00:41;341.27;;;306.03;;
4616;SDS011;2321;42.704;23.384;2023-04-01T15:03:15;250.30;;;227.03;;
4616;SDS011;2321;42.704;23.384;2023-04-01T15:05:49;227.03;;;203.13;;
4616;SDS011;2321;42.704;23.384;2023-04-01T15:08:20;294.50;;;266.47;;
4616;SDS011;2321;42.704;23.384;2023-04-01T15:11:01;265.17;;;240.30;;
4616;SDS011;2321;42.704;23.384;2023-04-01T15:13:48;164.63;;;146.10;;
4616;SDS011;2321;42.704;23.384;2023-04-01T15:16:34;244.37;;;221.43;;
4616;SDS011;2321;42.704;23.384;2023-04-01T15:19:14;334.90;;;304.13;;
4616;SDS011;2321;42.704;23.384;2023-04-01T15:21:53;338.70;;;305.80;;
4616;SDS011;2321;42.704;23.384;2023-04-01T15:24:39;344.67;;;314.30;;
4616;SDS011;2321;42.704;23.384;2023-04-01T15:27:25;198.70;;;179.93;;
4616;SDS011;2321;42.704;23.384;2023-04-01T15:30:06;219.37;;;199.20;;
4616;SDS011;2321;42.704;23.384;2023-04-01T15:33:00;214.50;;;194.40;;
4616;SDS011;2321;42.704;23.384;2023-04-01T15:35:45;194.47;;;176.87;;
4616;SDS011;2321;42.704;23.384;2023-04-01T15:38:24;273.00;;;190.47;;
4616;SDS011;2321;42.704;23.384;2023-04-01T15:41:00;217.53;;;193.90;;
4616;SDS011;2321;42.704;23.384;2023-04-01T15:43:37;103.87;;;70.07;;
4616;SDS011;2321;42.704;23.384;2023-04-01T15:46:12;123.87;;;71.17;;
4616;SDS011;2321;42.704;23.384;2023-04-01T15:49:10;147.60;;;136.97;;
4616;SDS011;2321;42.704;23.384;2023-04-01T15:55:18;144.80;;;126.00;;
4616;SDS011;2321;42.704;23.384;2023-04-01T15:57:50;186.93;;;125.57;;
4616;SDS011;2321;42.704;23.384;2023-04-01T16:00:28;157.43;;;97.37;;
4616;SDS011;2321;42.704;23.384;2023-04-01T16:03:19;112.50;;;69.33;;
4616;SDS011;2321;42.704;23.384;2023-04-01T16:06:02;81.33;;;30.83;;
4616;SDS011;2321;42.704;23.384;2023-04-01T16:08:50;123.50;;;48.10;;
4616;SDS011;2321;42.704;23.384;2023-04-01T16:14:07;144.20;;;45.87;;
4616;SDS011;2321;42.704;23.384;2023-04-01T16:16:47;94.63;;;33.87;;
4616;SDS011;2321;42.704;23.384;2023-04-01T16:19:37;58.57;;;27.13;;
4616;SDS011;2321;42.704;23.384;2023-04-01T16:22:17;42.30;;;22.80;;
4616;SDS011;2321;42.704;23.384;2023-04-01T16:24:51;73.03;;;27.20;;
4616;SDS011;2321;42.704;23.384;2023-04-01T16:27:24;70.10;;;26.73;;
4616;SDS011;2321;42.704;23.384;2023-04-01T16:29:58;54.10;;;24.77;;
4616;SDS011;2321;42.704;23.384;2023-04-01T16:32:31;65.63;;;20.33;;
4616;SDS011;2321;42.704;23.384;2023-04-01T16:35:14;102.43;;;26.83;;
4616;SDS011;2321;42.704;23.384;2023-04-01T16:37:49;72.73;;;17.80;;
4616;SDS011;2321;42.704;23.384;2023-04-01T16:40:23;82.10;;;23.83;;
4616;SDS011;2321;42.704;23.384;2023-04-01T16:51:57;65.17;;;21.60;;
4616;SDS011;2321;42.704;23.384;2023-04-01T16:54:42;77.33;;;20.23;;
4616;SDS011;2321;42.704;23.384;2023-04-01T16:57:19;72.03;;;20.30;;